createdAt,value
2023-05-19T00:04:53.577Z,5.30
2023-05-19T00:23:33.236Z,4.60
2023-05-19T00:42:13.289Z,5.00
2023-05-19T01:00:52.997Z,3.80
2023-05-19T01:19:34.543Z,3.40
2023-05-19T01:38:13.586Z,3.70
2023-05-19T01:56:51.857Z,4.40
2023-05-19T02:15:31.548Z,3.90
2023-05-19T02:34:09.983Z,5.10
2023-05-19T03:11:29.380Z,3.20
2023-05-19T03:30:09.668Z,5.90
2023-05-19T03:48:49.532Z,7.40
2023-05-19T04:07:29.360Z,3.50
2023-05-19T04:26:10.281Z,4.00
2023-05-19T04:44:51.376Z,4.30
2023-05-19T05:03:33.285Z,4.20
2023-05-19T05:22:15.168Z,3.30
2023-05-19T05:59:35.589Z,4.00
2023-05-19T06:18:15.377Z,3.70
2023-05-19T06:36:56.449Z,3.70
2023-05-19T06:55:50.645Z,2.30
2023-05-19T07:14:24.488Z,2.50
2023-05-19T07:33:07.152Z,3.50
2023-05-19T07:51:47.408Z,2.30
2023-05-19T08:10:27.812Z,2.30
2023-05-19T08:29:04.653Z,4.80
2023-05-19T08:47:44.563Z,3.20
2023-05-19T09:06:25.446Z,4.20
2023-05-19T09:43:54.073Z,1.70
2023-05-19T10:02:31.601Z,2.20
2023-05-19T10:39:50.761Z,1.70
2023-05-19T10:58:28.592Z,2.40
2023-05-19T11:17:06.127Z,2.20
2023-05-19T11:35:44.600Z,2.80
2023-05-19T12:13:03.343Z,1.90
2023-05-19T12:31:45.975Z,2.10
2023-05-19T12:50:23.642Z,3.40
2023-05-19T13:09:09.538Z,2.00
2023-05-19T13:27:54.788Z,1.70
2023-05-19T13:46:36.964Z,2.80
2023-05-19T14:05:04.755Z,2.30
2023-05-19T14:23:43.313Z,2.50
2023-05-19T14:42:21.519Z,2.40
2023-05-19T15:00:58.836Z,1.50
2023-05-19T15:19:37.713Z,3.20
2023-05-19T15:38:16.237Z,4.00
2023-05-19T15:56:54.852Z,3.30
2023-05-19T16:15:33.571Z,2.90
2023-05-19T16:34:11.539Z,3.30
2023-05-19T16:52:49.981Z,3.70
2023-05-19T17:48:47.453Z,3.30
2023-05-19T18:07:27.070Z,3.40
2023-05-19T18:44:45.520Z,4.80
2023-05-19T19:03:23.806Z,3.90
2023-05-19T19:22:02.808Z,4.10
2023-05-19T19:40:42.538Z,3.90
2023-05-19T19:59:21.771Z,4.80
2023-05-19T20:18:01.057Z,4.30
2023-05-19T20:36:41.283Z,4.00
2023-05-19T20:55:20.558Z,5.20
2023-05-19T21:13:59.360Z,4.80
2023-05-19T21:51:19.081Z,6.70
2023-05-19T22:09:58.073Z,8.00
2023-05-19T22:47:12.560Z,6.20
2023-05-19T23:24:32.110Z,6.70
2023-05-19T23:43:11.407Z,6.70
